KBVU

Boulder City Municipal Airport

Boulder City, Nevada, USA
METAR KBVU 121815Z AUTO 25005KT 10SM CLR 11/M01 A3012 RMK AO2
Observed Flight Rules
Dec-12 @ 18:15 UTC (33 minutes ago) Visual Flight Rules
Wind Visibility Clouds
250° at 5 knots 10 miles
  • Clear skies
Temperatures Readings
Current 11°C / 52°F
Dewpoint -1°C / 30°F
Humidity 44%
Altimeter 30.12" Hg
Pressure 1020 hPa
Elevation 671
METAR KBVU 121815Z AUTO 25005KT 10SM CLR 11/M01 A3012 RMK AO2
Observed Flight Rules
Dec-12 @ 18:15 UTC
(33 minutes ago)
VFR
Wind Visibility
250° at 5 knots 10 miles
Clouds
  • Clear skies
Temperature Dewpoint
11°C / 52°F -1°C / 30°F
Humidity Altimeter Pressure
44% 30.12" Hg 1020 hPa